This is the latest recevied weather packets stored in our database for station/object GW1599. If no packets are shown the sender has not sent any weather packets the latest 10 day(s).
| Time | Temp. | Humidity | Pressure | Rain* | Wind** | Luminosity | Snow |
|---|---|---|---|---|---|---|---|
| 1777735839 | 15° C | 45% | 1018.6 hPa | 0 mm | - | - | - |
| 1777735453 | 13.89° C | 47% | 1018.6 hPa | 0 mm | - | - | - |
| 1777734042 | 13.89° C | 51% | 1018.6 hPa | 0 mm | - | - | - |
| 1777732610 | 12.78° C | 60% | 1018.6 hPa | 0 mm | - | - | - |
| 1777727567 | 6.67° C | 94% | 1018.9 hPa | 0 mm | - | - | - |
| 1777726834 | 6.11° C | 95% | 1018.9 hPa | 0 mm | - | - | - |
| 1777723604 | 2.22° C | 94% | 1018.9 hPa | 0 mm | - | - | - |
| 1777722891 | 1.67° C | 94% | 1018.9 hPa | 0 mm | - | - | - |
| 1777722152 | 1.67° C | 93% | 1018.6 hPa | 0 mm | - | - | - |
| 1777717127 | 2.22° C | 93% | 1018.6 hPa | 0 mm | - | - | - |
| 1777716391 | 2.22° C | 93% | 1018.6 hPa | 0 mm | - | - | - |
| 1777705944 | 2.78° C | 90% | 1018.2 hPa | 0 mm | - | - | - |
| 1777701647 | 3.89° C | 88% | 1018.9 hPa | 0 mm | - | - | - |
| 1777701288 | 3.89° C | 88% | 1018.9 hPa | 0 mm | - | - | - |
| 1777699821 | 4.44° C | 88% | 1018.9 hPa | 0 mm | - | - | - |
| 1777698388 | 5° C | 86% | 1018.9 hPa | 0 mm | - | - | - |
| 1777695875 | 6.11° C | 83% | 1018.9 hPa | 0 mm | - | - | - |
| 1777691175 | 7.78° C | 79% | 1018.9 hPa | 0.25 mm | - | - | - |
| 1777681112 | 11.11° C | 83% | 1015.9 hPa | 0.25 mm | - | - | - |
| 1777680766 | 11.11° C | 83% | 1015.9 hPa | 0.25 mm | - | - | - |
| 1777679693 | 11.67° C | 83% | 1015.5 hPa | 0.25 mm | - | - | - |
| 1777678973 | 11.67° C | 83% | 1015.2 hPa | 0.25 mm | - | - | - |
| 1777674654 | 12.78° C | 78% | 1014.9 hPa | 0.25 mm | - | - | - |
| 1777671758 | 13.89° C | 65% | 1014.5 hPa | 0.25 mm | - | - | - |
| 1777658615 | 18.89° C | 44% | 1013.2 hPa | 0 mm | - | - | - |
* Rain since midnight (hover to see other rain measurements)
** Current wind speed in m/s (hover to see current wind gust speed)